Pigalopp — LG3587 — position and weather

sailwx.info

Track history (hours):
 
Tides and Currents Weather Stations Pressure Air Temp Water Temp Dewpoint Dewpoint Depression Visibility Wind Speed Wind Dir Waves Ship Positions

Pigalopp

Last reported at 2015-Jul-06 09:21 UTC. Time now 2015-Jul-07 19:50 UTC.
Position N 59°06' E 005°53'.

Length 13 m.

Type: Sailing vessel. MMSI: 257735890.

Date/timePositionNaut miles runAvg speedWind from/ knotsBaromVisibWave heightAir tempDewpointWater temp
2015-Jul-06 09:21N 59°06' E 005°53'5 6.7
2015-Jul-06 08:33N 59°01' E 005°48'2 0.1
2015-Jul-05 18:33N 58°59' E 005°46'3 3.1
2015-Jul-05 17:33N 58°57' E 005°50'0 0.0
2015-Jul-05 16:33N 58°57' E 005°50'0 0.0
2015-Jul-05 15:30N 58°57' E 005°50'0 0.0
2015-Jul-05 14:33N 58°57' E 005°50'0 0.0
2015-Jul-05 13:18N 58°57' E 005°50'0 0.0
2015-Jul-05 12:30N 58°57' E 005°50'0 0.0
2015-Jul-05 11:30N 58°57' E 005°50'0 0.0
2015-Jul-05 10:33N 58°57' E 005°50'0 0.0
2015-Jul-05 09:33N 58°57' E 005°50'0 0.0
2015-Jul-05 08:30N 58°57' E 005°50'0 0.0
2015-Jul-05 07:33N 58°57' E 005°50'0 0.0
2015-Jul-05 06:33N 58°57' E 005°50'0 0.0
2015-Jul-05 05:33N 58°57' E 005°50'0 0.0
2015-Jul-05 04:33N 58°57' E 005°50'0 0.0
2015-Jul-05 03:33N 58°57' E 005°50'0 0.0
2015-Jul-05 02:33N 58°57' E 005°50'0 0.0
2015-Jul-05 01:33N 58°57' E 005°50'0 0.0
2015-Jul-05 00:15N 58°57' E 005°50'0 0.0
2015-Jul-04 23:27N 58°57' E 005°50'0 0.0
2015-Jul-04 22:33N 58°57' E 005°50'0 0.0
2015-Jul-04 21:33N 58°57' E 005°50'0 0.0
2015-Jul-04 20:32N 58°57' E 005°50'0 0.0
2015-Jul-04 19:14N 58°57' E 005°50'0 0.0
2015-Jul-04 18:26N 58°57' E 005°50'0 0.0
2015-Jul-04 17:33N 58°57' E 005°50'3 3.1
2015-Jul-04 16:31N 59°00' E 005°47'2 2.5
2015-Jul-04 15:32N 58°58' E 005°44'0 0.0
2015-Jul-04 14:32N 58°58' E 005°44'0 0.0
2015-Jul-04 13:32N 58°58' E 005°44'0 0.0
2015-Jul-04 12:30N 58°58' E 005°44'0 0.0
2015-Jul-04 11:32N 58°58' E 005°44'  
2015-Jul-02 05:33N 58°59' E 005°46'0 0.0
2015-Jul-02 04:33N 58°59' E 005°46'0 0.0
2015-Jul-02 03:33N 58°59' E 005°46'0 0.0
2015-Jul-02 02:33N 58°59' E 005°46'0 0.0
2015-Jul-02 01:33N 58°59' E 005°46'0 0.0
2015-Jul-02 00:33N 58°59' E 005°46'0 0.0
2015-Jul-01 23:32N 58°59' E 005°46'0 0.0
2015-Jul-01 22:32N 58°59' E 005°46'0 0.0
2015-Jul-01 21:32N 58°59' E 005°46'0 0.0
2015-Jul-01 20:32N 58°59' E 005°46'0 0.0
2015-Jul-01 19:32N 58°59' E 005°46'1 0.6
2015-Jul-01 18:33N 58°59' E 005°45'1 0.9
2015-Jul-01 17:33N 58°59' E 005°43'0 0.3
2015-Jul-01 16:33N 58°59' E 005°44'1 1.3
2015-Jul-01 15:33N 58°59' E 005°46'0 0.0
2015-Jul-01 14:32N 58°59' E 005°46'1 1.1
2015-Jul-01 13:33N 58°59' E 005°44'0 0.0
2015-Jul-01 12:30N 58°59' E 005°44'0 0.0
2015-Jul-01 11:33N 58°59' E 005°44'0 0.0
2015-Jul-01 10:33N 58°59' E 005°44'0 0.0
2015-Jul-01 09:33N 58°59' E 005°44'0 0.0
2015-Jul-01 08:33N 58°59' E 005°44'0 0.0
2015-Jul-01 07:33N 58°59' E 005°44'0 0.0
2015-Jul-01 06:33N 58°59' E 005°44'0 0.0
2015-Jul-01 05:33N 58°59' E 005°44'0 0.0
2015-Jul-01 04:33N 58°59' E 005°44'0 0.0
2015-Jul-01 03:33N 58°59' E 005°44'0 0.0
2015-Jul-01 02:33N 58°59' E 005°44'0 0.0
2015-Jul-01 01:33N 58°59' E 005°44'0 0.0
2015-Jul-01 00:33N 58°59' E 005°44'0 0.0
2015-Jun-30 23:33N 58°59' E 005°44'0 0.0
2015-Jun-30 22:32N 58°59' E 005°44'0 0.0
2015-Jun-30 21:32N 58°59' E 005°44'0 0.0
2015-Jun-30 20:33N 58°59' E 005°44'0 0.0
2015-Jun-30 19:33N 58°59' E 005°44'0 0.0
2015-Jun-30 18:33N 58°59' E 005°44'0 0.0
2015-Jun-30 17:33N 58°59' E 005°44'0 0.0
2015-Jun-30 16:33N 58°59' E 005°44'0 0.0
2015-Jun-30 15:33N 58°59' E 005°44'0 0.0
2015-Jun-30 14:33N 58°59' E 005°44'0 0.0
2015-Jun-30 13:33N 58°59' E 005°44'0 0.0
2015-Jun-30 12:33N 58°59' E 005°44'0 0.0
2015-Jun-30 11:33N 58°59' E 005°44'0 0.0
2015-Jun-30 10:33N 58°59' E 005°44'0 0.0
2015-Jun-30 09:33N 58°59' E 005°44'0 0.0
2015-Jun-30 08:33N 58°59' E 005°44'0 0.0
2015-Jun-30 07:33N 58°59' E 005°44'0 0.0
2015-Jun-30 06:33N 58°59' E 005°44'0 0.0
2015-Jun-30 05:30N 58°59' E 005°44'0 0.0
2015-Jun-30 04:33N 58°59' E 005°44'0 0.0
2015-Jun-30 03:33N 58°59' E 005°44'0 0.0
2015-Jun-30 02:33N 58°59' E 005°44'0 0.0
2015-Jun-30 01:33N 58°59' E 005°44'0 0.0
2015-Jun-30 00:33N 58°59' E 005°44'0 0.0
2015-Jun-29 23:33N 58°59' E 005°44'0 0.0
2015-Jun-29 22:33N 58°59' E 005°44'0 0.0
2015-Jun-29 21:33N 58°59' E 005°44'0 0.0
2015-Jun-29 20:33N 58°59' E 005°44'0 0.0
2015-Jun-29 19:33N 58°59' E 005°44'0 0.0
2015-Jun-29 18:33N 58°59' E 005°44'0 0.0
2015-Jun-29 17:33N 58°59' E 005°44'0 0.0
2015-Jun-29 16:33N 58°59' E 005°44'0 0.0
2015-Jun-29 15:33N 58°59' E 005°44'0 0.0
2015-Jun-29 14:33N 58°59' E 005°44'0 0.0
2015-Jun-29 13:33N 58°59' E 005°44'0 0.0
2015-Jun-29 12:27N 58°59' E 005°44'0 0.0
2015-Jun-29 11:32N 58°59' E 005°44'0 0.0
2015-Jun-29 10:32N 58°59' E 005°44'0 0.0
2015-Jun-29 09:32N 58°59' E 005°44'0 0.0
2015-Jun-29 08:33N 58°59' E 005°44'0 0.0
2015-Jun-29 07:33N 58°59' E 005°44'0 0.0
2015-Jun-29 06:30N 58°59' E 005°44'0 0.0
2015-Jun-29 05:33N 58°59' E 005°44'0 0.0
2015-Jun-29 04:25N 58°59' E 005°44'0 0.0
2015-Jun-29 03:31N 58°59' E 005°44'0 0.0
2015-Jun-29 02:33N 58°59' E 005°44'0 0.0
2015-Jun-29 01:33N 58°59' E 005°44'0 0.0
2015-Jun-29 00:33N 58°59' E 005°44'0 0.0
2015-Jun-28 23:33N 58°59' E 005°44'0 0.0
2015-Jun-28 22:33N 58°59' E 005°44'0 0.0
2015-Jun-28 21:33N 58°59' E 005°44'0 0.0
2015-Jun-28 20:33N 58°59' E 005°44'0 0.3
2015-Jun-28 19:33N 58°59' E 005°44'  
Track history (hours):
 
Tides and Currents Weather Stations Pressure Air Temp Water Temp Dewpoint Dewpoint Depression Visibility Wind Speed Wind Dir Waves Ship Positions

Pigalopp

Last reported at 2015-Jul-06 09:21 UTC. Time now 2015-Jul-07 19:50 UTC.
Position N 59°06' E 005°53'.

Length 13 m.

Type: Sailing vessel. MMSI: 257735890.

Date/timePositionNaut miles runAvg speedWind from/ knotsBaromVisibWave heightAir tempDewpointWater temp
2015-Jul-06 09:21N 59°06' E 005°53'5 6.7
2015-Jul-06 08:33N 59°01' E 005°48'2 0.1
2015-Jul-05 18:33N 58°59' E 005°46'3 3.1
2015-Jul-05 17:33N 58°57' E 005°50'0 0.0
2015-Jul-05 16:33N 58°57' E 005°50'0 0.0
2015-Jul-05 15:30N 58°57' E 005°50'0 0.0
2015-Jul-05 14:33N 58°57' E 005°50'0 0.0
2015-Jul-05 13:18N 58°57' E 005°50'0 0.0
2015-Jul-05 12:30N 58°57' E 005°50'0 0.0
2015-Jul-05 11:30N 58°57' E 005°50'0 0.0
2015-Jul-05 10:33N 58°57' E 005°50'0 0.0
2015-Jul-05 09:33N 58°57' E 005°50'0 0.0
2015-Jul-05 08:30N 58°57' E 005°50'0 0.0
2015-Jul-05 07:33N 58°57' E 005°50'0 0.0
2015-Jul-05 06:33N 58°57' E 005°50'0 0.0
2015-Jul-05 05:33N 58°57' E 005°50'0 0.0
2015-Jul-05 04:33N 58°57' E 005°50'0 0.0
2015-Jul-05 03:33N 58°57' E 005°50'0 0.0
2015-Jul-05 02:33N 58°57' E 005°50'0 0.0
2015-Jul-05 01:33N 58°57' E 005°50'0 0.0
2015-Jul-05 00:15N 58°57' E 005°50'0 0.0
2015-Jul-04 23:27N 58°57' E 005°50'0 0.0
2015-Jul-04 22:33N 58°57' E 005°50'0 0.0
2015-Jul-04 21:33N 58°57' E 005°50'0 0.0
2015-Jul-04 20:32N 58°57' E 005°50'0 0.0
2015-Jul-04 19:14N 58°57' E 005°50'0 0.0
2015-Jul-04 18:26N 58°57' E 005°50'0 0.0
2015-Jul-04 17:33N 58°57' E 005°50'3 3.1
2015-Jul-04 16:31N 59°00' E 005°47'2 2.5
2015-Jul-04 15:32N 58°58' E 005°44'0 0.0
2015-Jul-04 14:32N 58°58' E 005°44'0 0.0
2015-Jul-04 13:32N 58°58' E 005°44'0 0.0
2015-Jul-04 12:30N 58°58' E 005°44'0 0.0
2015-Jul-04 11:32N 58°58' E 005°44'  
2015-Jul-02 05:33N 58°59' E 005°46'0 0.0
2015-Jul-02 04:33N 58°59' E 005°46'0 0.0
2015-Jul-02 03:33N 58°59' E 005°46'0 0.0
2015-Jul-02 02:33N 58°59' E 005°46'0 0.0
2015-Jul-02 01:33N 58°59' E 005°46'0 0.0
2015-Jul-02 00:33N 58°59' E 005°46'0 0.0
2015-Jul-01 23:32N 58°59' E 005°46'0 0.0
2015-Jul-01 22:32N 58°59' E 005°46'0 0.0
2015-Jul-01 21:32N 58°59' E 005°46'0 0.0
2015-Jul-01 20:32N 58°59' E 005°46'0 0.0
2015-Jul-01 19:32N 58°59' E 005°46'1 0.6
2015-Jul-01 18:33N 58°59' E 005°45'1 0.9
2015-Jul-01 17:33N 58°59' E 005°43'0 0.3
2015-Jul-01 16:33N 58°59' E 005°44'1 1.3
2015-Jul-01 15:33N 58°59' E 005°46'0 0.0
2015-Jul-01 14:32N 58°59' E 005°46'1 1.1
2015-Jul-01 13:33N 58°59' E 005°44'0 0.0
2015-Jul-01 12:30N 58°59' E 005°44'0 0.0
2015-Jul-01 11:33N 58°59' E 005°44'0 0.0
2015-Jul-01 10:33N 58°59' E 005°44'0 0.0
2015-Jul-01 09:33N 58°59' E 005°44'0 0.0
2015-Jul-01 08:33N 58°59' E 005°44'0 0.0
2015-Jul-01 07:33N 58°59' E 005°44'0 0.0
2015-Jul-01 06:33N 58°59' E 005°44'0 0.0
2015-Jul-01 05:33N 58°59' E 005°44'0 0.0
2015-Jul-01 04:33N 58°59' E 005°44'0 0.0
2015-Jul-01 03:33N 58°59' E 005°44'0 0.0
2015-Jul-01 02:33N 58°59' E 005°44'0 0.0
2015-Jul-01 01:33N 58°59' E 005°44'0 0.0
2015-Jul-01 00:33N 58°59' E 005°44'0 0.0
2015-Jun-30 23:33N 58°59' E 005°44'0 0.0
2015-Jun-30 22:32N 58°59' E 005°44'0 0.0
2015-Jun-30 21:32N 58°59' E 005°44'0 0.0
2015-Jun-30 20:33N 58°59' E 005°44'0 0.0
2015-Jun-30 19:33N 58°59' E 005°44'0 0.0
2015-Jun-30 18:33N 58°59' E 005°44'0 0.0
2015-Jun-30 17:33N 58°59' E 005°44'0 0.0
2015-Jun-30 16:33N 58°59' E 005°44'0 0.0
2015-Jun-30 15:33N 58°59' E 005°44'0 0.0
2015-Jun-30 14:33N 58°59' E 005°44'0 0.0
2015-Jun-30 13:33N 58°59' E 005°44'0 0.0
2015-Jun-30 12:33N 58°59' E 005°44'0 0.0
2015-Jun-30 11:33N 58°59' E 005°44'0 0.0
2015-Jun-30 10:33N 58°59' E 005°44'0 0.0
2015-Jun-30 09:33N 58°59' E 005°44'0 0.0
2015-Jun-30 08:33N 58°59' E 005°44'0 0.0
2015-Jun-30 07:33N 58°59' E 005°44'0 0.0
2015-Jun-30 06:33N 58°59' E 005°44'0 0.0
2015-Jun-30 05:30N 58°59' E 005°44'0 0.0
2015-Jun-30 04:33N 58°59' E 005°44'0 0.0
2015-Jun-30 03:33N 58°59' E 005°44'0 0.0
2015-Jun-30 02:33N 58°59' E 005°44'0 0.0
2015-Jun-30 01:33N 58°59' E 005°44'0 0.0
2015-Jun-30 00:33N 58°59' E 005°44'0 0.0
2015-Jun-29 23:33N 58°59' E 005°44'0 0.0
2015-Jun-29 22:33N 58°59' E 005°44'0 0.0
2015-Jun-29 21:33N 58°59' E 005°44'0 0.0
2015-Jun-29 20:33N 58°59' E 005°44'0 0.0
2015-Jun-29 19:33N 58°59' E 005°44'0 0.0
2015-Jun-29 18:33N 58°59' E 005°44'0 0.0
2015-Jun-29 17:33N 58°59' E 005°44'0 0.0
2015-Jun-29 16:33N 58°59' E 005°44'0 0.0
2015-Jun-29 15:33N 58°59' E 005°44'0 0.0
2015-Jun-29 14:33N 58°59' E 005°44'0 0.0
2015-Jun-29 13:33N 58°59' E 005°44'0 0.0
2015-Jun-29 12:27N 58°59' E 005°44'0 0.0
2015-Jun-29 11:32N 58°59' E 005°44'0 0.0
2015-Jun-29 10:32N 58°59' E 005°44'0 0.0
2015-Jun-29 09:32N 58°59' E 005°44'0 0.0
2015-Jun-29 08:33N 58°59' E 005°44'0 0.0
2015-Jun-29 07:33N 58°59' E 005°44'0 0.0
2015-Jun-29 06:30N 58°59' E 005°44'0 0.0
2015-Jun-29 05:33N 58°59' E 005°44'0 0.0
2015-Jun-29 04:25N 58°59' E 005°44'0 0.0
2015-Jun-29 03:31N 58°59' E 005°44'0 0.0
2015-Jun-29 02:33N 58°59' E 005°44'0 0.0
2015-Jun-29 01:33N 58°59' E 005°44'0 0.0
2015-Jun-29 00:33N 58°59' E 005°44'0 0.0
2015-Jun-28 23:33N 58°59' E 005°44'0 0.0
2015-Jun-28 22:33N 58°59' E 005°44'0 0.0
2015-Jun-28 21:33N 58°59' E 005°44'0 0.0
2015-Jun-28 20:33N 58°59' E 005°44'0 0.3
2015-Jun-28 19:33N 58°59' E 005°44'  

Dump ship's entire track history